Time;durP1;ratioP1;P1;durP2;ratioP2;P2;SDS_P1;SDS_P2;PMS_P1;PMS_P2;Temp;Humidity;BMP_temperature;BMP_pressure;BME280_temperature;BME280_humidity;BME280_pressure;Samples;Min_cycle;Max_cycle;Signal;HPM_P1;HPM_P2
2021/07/20 00:00:48;;;;;;;10.77;3.88;;;16.50;99.90;;;;;;5062354;28;20150;-71
2021/07/20 00:03:14;;;;;;;9.63;3.80;;;16.30;99.90;;;;;;5085379;28;20678;-70
2021/07/20 00:05:41;;;;;;;9.25;3.38;;;16.30;99.90;;;;;;5064955;28;20191;-73
2021/07/20 00:08:09;;;;;;;9.93;4.05;;;16.40;99.90;;;;;;5064519;28;20074;-70
2021/07/20 00:11:06;;;;;;;12.32;4.55;;;16.40;99.90;;;;;;5084208;28;20077;-71
2021/07/20 00:13:32;;;;;;;12.20;4.15;;;16.40;99.90;;;;;;5068799;28;20035;-70
2021/07/20 00:15:58;;;;;;;10.00;3.95;;;16.30;99.90;;;;;;5065788;28;20694;-70
2021/07/20 00:18:35;;;;;;;11.23;4.95;;;16.30;99.90;;;;;;5085111;28;20107;-70
2021/07/20 00:21:04;;;;;;;10.05;4.00;;;16.30;99.90;;;;;;5065139;28;20025;-70
2021/07/20 00:23:30;;;;;;;10.27;4.35;;;16.20;99.90;;;;;;5065456;28;20028;-71
2021/07/20 00:25:56;;;;;;;11.00;4.80;;;16.20;99.90;;;;;;5065277;28;20039;-70
2021/07/20 00:28:23;;;;;;;13.98;4.22;;;16.10;99.90;;;;;;5066641;28;20526;-70
2021/07/20 00:30:49;;;;;;;10.43;3.83;;;16.10;99.90;;;;;;5064113;28;20063;-70
2021/07/20 00:33:16;;;;;;;9.85;4.15;;;16.10;99.90;;;;;;5060120;28;20025;-70
2021/07/20 00:35:41;;;;;;;9.40;3.85;;;16.00;99.90;;;;;;5084957;28;20079;-71
2021/07/20 00:38:07;;;;;;;12.07;5.15;;;16.00;99.90;;;;;;5083804;28;20032;-70
2021/07/20 00:40:33;;;;;;;12.50;4.30;;;15.90;99.90;;;;;;5063766;28;20036;-70
2021/07/20 00:43:00;;;;;;;8.77;3.95;;;15.90;99.90;;;;;;5083699;28;20071;-70
2021/07/20 00:45:27;;;;;;;15.15;5.07;;;15.90;99.90;;;;;;5084526;28;20055;-70
2021/07/20 00:47:53;;;;;;;11.68;5.32;;;15.90;99.90;;;;;;5064774;28;20098;-70
2021/07/20 00:50:23;;;;;;;11.10;4.45;;;15.90;99.90;;;;;;5087242;28;20440;-71
2021/07/20 00:52:48;;;;;;;11.57;4.45;;;15.90;99.90;;;;;;5081698;28;20036;-70
2021/07/20 00:55:15;;;;;;;11.32;4.55;;;15.90;99.90;;;;;;5088840;28;20543;-70
2021/07/20 00:57:42;;;;;;;14.13;5.18;;;15.80;99.90;;;;;;5085012;28;20665;-70
2021/07/20 01:00:12;;;;;;;12.07;5.00;;;15.70;99.90;;;;;;5088224;28;20075;-71
2021/07/20 01:02:37;;;;;;;12.43;4.55;;;15.80;99.90;;;;;;5085498;28;20062;-70
2021/07/20 01:05:06;;;;;;;10.63;4.80;;;15.70;99.90;;;;;;5087164;28;20029;-70
2021/07/20 01:07:34;;;;;;;12.32;4.75;;;15.70;99.90;;;;;;5067957;28;20044;-70
2021/07/20 01:10:04;;;;;;;11.75;4.95;;;15.80;99.90;;;;;;5085482;28;20032;-70
2021/07/20 01:12:34;;;;;;;11.68;4.53;;;15.70;99.90;;;;;;5069338;28;20028;-70
2021/07/20 01:15:01;;;;;;;13.52;4.80;;;15.70;99.90;;;;;;5068965;28;20054;-70
2021/07/20 01:17:27;;;;;;;12.30;5.03;;;15.60;99.90;;;;;;5086058;28;20032;-71
2021/07/20 01:19:54;;;;;;;10.25;4.50;;;15.70;99.90;;;;;;5069724;28;20395;-70
2021/07/20 01:22:30;;;;;;;11.52;4.50;;;15.60;99.90;;;;;;5085673;28;20033;-71
2021/07/20 01:25:00;;;;;;;12.48;4.65;;;15.60;99.90;;;;;;5086218;28;20036;-70
2021/07/20 01:27:28;;;;;;;14.57;4.70;;;15.50;99.90;;;;;;5087295;28;20032;-70
2021/07/20 01:29:55;;;;;;;11.48;5.60;;;15.50;99.90;;;;;;5069087;28;20490;-70
2021/07/20 01:32:21;;;;;;;14.18;5.47;;;15.50;99.90;;;;;;5085643;28;20036;-70
2021/07/20 01:34:50;;;;;;;10.98;5.07;;;15.50;99.90;;;;;;5087788;28;20036;-70
2021/07/20 01:37:17;;;;;;;14.77;5.22;;;15.40;99.90;;;;;;5066634;28;20039;-70
2021/07/20 01:39:43;;;;;;;12.82;5.00;;;15.30;99.90;;;;;;5080582;28;20120;-71
2021/07/20 01:42:09;;;;;;;11.82;6.20;;;15.30;99.90;;;;;;5084560;28;20033;-71
2021/07/20 01:44:36;;;;;;;19.05;5.95;;;15.40;99.90;;;;;;5086574;28;20119;-72
2021/07/20 01:47:01;;;;;;;12.85;5.22;;;15.40;99.90;;;;;;5085400;28;20032;-70
2021/07/20 01:49:28;;;;;;;15.23;5.97;;;15.30;99.90;;;;;;5067733;28;20813;-70
2021/07/20 01:51:54;;;;;;;11.30;5.38;;;15.30;99.90;;;;;;5063874;28;20058;-70
2021/07/20 01:54:21;;;;;;;14.07;4.75;;;15.30;99.90;;;;;;5066320;28;20032;-70
2021/07/20 01:56:47;;;;;;;11.52;5.38;;;15.30;99.90;;;;;;5064556;28;20035;-70
2021/07/20 01:59:13;;;;;;;12.55;4.95;;;15.30;99.90;;;;;;5083774;28;20025;-70
2021/07/20 02:01:53;;;;;;;11.57;4.60;;;15.30;99.90;;;;;;5081561;28;20036;-71
2021/07/20 02:04:37;;;;;;;9.75;4.88;;;15.20;99.90;;;;;;5081594;28;20020;-70
2021/07/20 02:09:51;;;;;;;12.63;4.68;;;15.20;99.90;;;;;;5080273;28;20062;-70
2021/07/20 02:12:19;;;;;;;17.00;4.70;;;15.10;99.90;;;;;;5083546;28;20119;-70
2021/07/20 02:14:48;;;;;;;12.63;5.07;;;15.10;99.90;;;;;;5085389;28;20032;-71
2021/07/20 02:17:14;;;;;;;11.15;4.53;;;15.20;99.90;;;;;;5065281;28;20024;-70
2021/07/20 02:20:03;;;;;;;13.18;5.28;;;15.10;99.90;;;;;;5069361;28;20093;-70
2021/07/20 02:22:31;;;;;;;14.23;5.18;;;15.10;99.90;;;;;;5084629;28;20032;-70
2021/07/20 02:24:58;;;;;;;15.15;5.22;;;15.10;99.90;;;;;;5066471;28;20090;-70
2021/07/20 02:27:25;;;;;;;11.93;5.00;;;15.10;99.90;;;;;;5083074;28;20046;-70
2021/07/20 02:29:54;;;;;;;18.73;6.35;;;15.10;99.90;;;;;;5067216;28;20550;-70
2021/07/20 02:32:22;;;;;;;16.25;5.90;;;15.10;99.90;;;;;;5085931;28;20450;-71
2021/07/20 02:34:50;;;;;;;14.65;6.53;;;15.10;99.90;;;;;;5065773;28;20119;-70
2021/07/20 02:37:16;;;;;;;15.45;5.65;;;15.10;99.90;;;;;;5087163;28;20032;-71
2021/07/20 02:39:44;;;;;;;16.08;6.57;;;15.10;99.90;;;;;;5067557;28;20043;-70
2021/07/20 02:42:10;;;;;;;14.98;6.25;;;15.00;99.90;;;;;;5079955;28;20031;-71
2021/07/20 02:44:38;;;;;;;13.93;5.35;;;15.00;99.90;;;;;;5068737;28;20460;-70
2021/07/20 02:47:05;;;;;;;11.95;5.07;;;15.00;99.90;;;;;;5084250;28;20037;-70
2021/07/20 02:49:31;;;;;;;16.23;6.10;;;14.90;99.90;;;;;;5068135;28;20032;-70
2021/07/20 02:51:57;;;;;;;17.05;6.50;;;14.90;99.90;;;;;;5085260;28;20096;-70
2021/07/20 02:54:26;;;;;;;16.55;5.30;;;14.90;99.90;;;;;;5085678;28;20028;-70
2021/07/20 02:56:53;;;;;;;14.73;5.45;;;14.90;99.90;;;;;;5068108;28;20028;-70
2021/07/20 02:59:23;;;;;;;15.20;6.10;;;14.90;99.90;;;;;;5064813;28;20039;-70
2021/07/20 03:01:53;;;;;;;12.75;4.95;;;14.90;99.90;;;;;;5079119;28;20079;-70
2021/07/20 03:04:18;;;;;;;14.18;5.35;;;14.80;99.90;;;;;;5085643;28;20043;-70
2021/07/20 03:06:51;;;;;;;14.70;4.65;;;14.90;99.90;;;;;;5084821;28;20037;-70
2021/07/20 03:09:18;;;;;;;9.52;4.70;;;14.90;99.90;;;;;;5068882;28;20633;-70
2021/07/20 03:11:47;;;;;;;11.75;5.18;;;14.80;99.90;;;;;;5084784;28;20064;-70
2021/07/20 03:14:18;;;;;;;14.35;4.70;;;14.80;99.90;;;;;;5088098;28;20082;-70
2021/07/20 03:16:45;;;;;;;12.30;4.50;;;14.80;99.90;;;;;;5066521;28;20326;-70
2021/07/20 03:19:12;;;;;;;13.18;5.20;;;14.80;99.90;;;;;;5088615;28;20032;-70
2021/07/20 03:21:39;;;;;;;10.75;4.38;;;14.70;99.90;;;;;;5065563;28;20036;-70
2021/07/20 03:24:06;;;;;;;12.52;4.15;;;14.70;99.90;;;;;;5066512;28;20035;-70
2021/07/20 03:26:34;;;;;;;11.18;4.22;;;14.80;99.90;;;;;;5067946;28;20163;-70
2021/07/20 03:29:02;;;;;;;10.35;4.20;;;14.70;99.90;;;;;;5085522;28;20039;-70
2021/07/20 03:31:28;;;;;;;11.68;5.03;;;14.80;99.90;;;;;;5086271;28;20048;-70
2021/07/20 03:33:54;;;;;;;10.10;3.83;;;14.80;99.90;;;;;;5067269;28;20498;-70
2021/07/20 03:36:20;;;;;;;10.07;4.13;;;14.70;99.90;;;;;;5067205;28;20032;-70
2021/07/20 03:38:46;;;;;;;11.43;4.18;;;14.70;99.90;;;;;;5068537;28;20083;-70
2021/07/20 03:41:12;;;;;;;12.10;4.60;;;14.70;99.90;;;;;;5062279;28;20032;-70
2021/07/20 03:43:39;;;;;;;9.60;4.07;;;14.60;99.90;;;;;;5086491;28;20377;-70
2021/07/20 03:46:05;;;;;;;10.02;4.13;;;14.60;99.90;;;;;;5078666;28;20037;-70
2021/07/20 03:48:32;;;;;;;11.07;4.70;;;14.70;99.90;;;;;;5086362;28;20039;-70
2021/07/20 03:50:59;;;;;;;10.93;4.30;;;14.60;99.90;;;;;;5065419;28;20083;-70
2021/07/20 03:53:29;;;;;;;11.10;5.18;;;14.60;99.90;;;;;;5067742;28;20024;-70
2021/07/20 03:55:58;;;;;;;10.02;4.28;;;14.50;99.90;;;;;;5082261;28;20059;-70
2021/07/20 03:58:24;;;;;;;8.48;4.15;;;14.50;99.90;;;;;;5085329;28;20025;-70
2021/07/20 04:00:55;;;;;;;11.55;4.43;;;14.60;99.90;;;;;;5081934;28;20036;-70
2021/07/20 04:03:21;;;;;;;9.02;4.00;;;14.60;99.90;;;;;;5085032;28;20044;-70
2021/07/20 04:05:48;;;;;;;12.05;4.40;;;14.60;99.90;;;;;;5083903;28;20554;-71
2021/07/20 04:08:17;;;;;;;12.55;5.88;;;14.60;99.90;;;;;;5085910;28;20046;-70
2021/07/20 04:10:44;;;;;;;11.30;5.10;;;14.60;99.90;;;;;;5066188;28;20060;-69
2021/07/20 04:13:11;;;;;;;13.65;4.28;;;14.60;99.90;;;;;;5086816;28;20104;-70
2021/07/20 04:15:46;;;;;;;11.15;4.13;;;14.60;99.90;;;;;;5066373;28;20053;-71
2021/07/20 04:18:14;;;;;;;14.05;5.00;;;14.60;99.90;;;;;;5086217;28;20036;-70
2021/07/20 04:20:40;;;;;;;11.18;4.20;;;14.60;99.90;;;;;;5065649;28;20096;-71
2021/07/20 04:23:07;;;;;;;12.13;4.30;;;14.60;99.90;;;;;;5086805;28;20039;-70
2021/07/20 04:25:36;;;;;;;10.45;3.90;;;14.50;99.90;;;;;;5068376;28;20036;-70
2021/07/20 04:28:02;;;;;;;9.98;4.30;;;14.60;99.90;;;;;;5063894;28;20067;-70
2021/07/20 04:30:28;;;;;;;9.73;3.95;;;14.60;99.90;;;;;;5068717;28;20025;-70
2021/07/20 04:32:56;;;;;;;12.27;4.43;;;14.60;99.90;;;;;;5059617;28;20082;-70
2021/07/20 04:35:23;;;;;;;11.00;4.15;;;14.60;99.90;;;;;;5082973;28;20032;-70
2021/07/20 04:37:51;;;;;;;8.25;3.33;;;14.70;99.90;;;;;;5070526;28;20086;-70
2021/07/20 04:40:16;;;;;;;9.90;3.70;;;14.80;99.90;;;;;;5070628;28;20115;-70
2021/07/20 04:42:43;;;;;;;10.88;3.92;;;14.80;99.90;;;;;;5066781;28;20060;-70
2021/07/20 04:45:10;;;;;;;12.82;4.63;;;14.80;99.90;;;;;;5080828;28;20512;-70
2021/07/20 04:47:40;;;;;;;13.50;5.25;;;14.80;99.90;;;;;;5083093;28;20044;-70
2021/07/20 04:50:12;;;;;;;9.95;4.38;;;14.80;99.90;;;;;;5077884;28;20043;-70
2021/07/20 04:52:39;;;;;;;10.18;4.03;;;14.80;99.90;;;;;;5081102;28;20029;-70
2021/07/20 04:55:07;;;;;;;9.68;4.35;;;14.80;99.90;;;;;;5077266;28;20040;-70
2021/07/20 04:57:35;;;;;;;12.07;4.15;;;14.90;99.90;;;;;;5078776;28;20036;-70
2021/07/20 05:00:05;;;;;;;9.82;4.07;;;14.80;99.90;;;;;;5085456;28;20025;-70
2021/07/20 05:02:31;;;;;;;9.38;3.78;;;14.90;99.90;;;;;;5064111;28;20036;-70
2021/07/20 05:04:58;;;;;;;9.63;3.70;;;15.00;99.90;;;;;;5090229;28;20545;-70
2021/07/20 05:07:24;;;;;;;11.60;4.80;;;15.00;99.90;;;;;;5076713;28;20051;-70
2021/07/20 05:09:52;;;;;;;11.80;4.38;;;15.10;99.90;;;;;;5078698;28;20112;-71
2021/07/20 05:12:18;;;;;;;7.15;3.63;;;15.10;99.90;;;;;;5055234;28;20048;-70
2021/07/20 05:14:44;;;;;;;6.50;3.13;;;15.10;99.90;;;;;;5072099;28;20127;-70
2021/07/20 05:17:10;;;;;;;8.77;3.88;;;15.30;99.90;;;;;;5064409;28;20036;-70
2021/07/20 05:19:37;;;;;;;7.70;3.85;;;15.40;99.90;;;;;;5067565;28;20040;-70
2021/07/20 05:22:04;;;;;;;7.75;4.20;;;15.40;99.90;;;;;;5081558;28;20025;-70
2021/07/20 05:24:33;;;;;;;6.85;3.08;;;15.50;99.90;;;;;;5074444;28;20051;-70
2021/07/20 05:26:59;;;;;;;8.35;3.40;;;15.60;99.90;;;;;;5075262;28;20032;-70
2021/07/20 05:29:26;;;;;;;9.98;3.58;;;15.60;99.90;;;;;;5083355;28;20091;-70
2021/07/20 05:31:54;;;;;;;8.00;3.75;;;15.70;99.90;;;;;;5080915;28;20033;-71
2021/07/20 05:34:20;;;;;;;10.60;3.38;;;15.80;99.90;;;;;;5079894;28;20460;-70
2021/07/20 05:36:46;;;;;;;10.50;3.67;;;15.90;99.90;;;;;;5081503;28;20524;-70
2021/07/20 05:39:12;;;;;;;8.60;3.95;;;16.10;99.90;;;;;;5078265;28;20071;-70
2021/07/20 05:41:43;;;;;;;7.00;3.22;;;16.30;99.90;;;;;;5061735;28;20047;-70
2021/07/20 05:44:13;;;;;;;7.63;3.40;;;16.50;99.90;;;;;;5078109;28;20044;-70
2021/07/20 05:46:40;;;;;;;6.45;2.72;;;16.80;99.90;;;;;;5064795;28;20040;-70
2021/07/20 05:49:07;;;;;;;4.47;2.60;;;17.00;99.90;;;;;;5075013;28;20031;-69
2021/07/20 05:51:34;;;;;;;6.80;2.85;;;17.20;99.90;;;;;;5080884;28;20112;-69
2021/07/20 05:54:00;;;;;;;7.18;2.67;;;17.40;99.90;;;;;;5080061;28;20036;-69
2021/07/20 05:56:33;;;;;;;5.97;2.72;;;17.50;99.90;;;;;;5076740;28;20036;-69
2021/07/20 05:59:00;;;;;;;6.35;2.60;;;17.70;99.90;;;;;;5076600;28;20498;-70
2021/07/20 06:01:27;;;;;;;5.57;2.55;;;17.80;99.90;;;;;;5077403;28;20040;-70
2021/07/20 06:03:58;;;;;;;7.05;2.75;;;17.90;99.90;;;;;;5075590;28;20119;-70
2021/07/20 06:06:28;;;;;;;8.93;3.40;;;17.90;99.90;;;;;;5063544;28;20056;-70
2021/07/20 06:08:56;;;;;;;6.95;2.80;;;18.00;99.90;;;;;;5061295;28;20499;-70
2021/07/20 06:11:23;;;;;;;5.25;2.67;;;18.10;99.90;;;;;;5071021;28;20032;-70
2021/07/20 06:13:51;;;;;;;5.95;2.97;;;18.20;99.90;;;;;;5064859;28;20048;-70
2021/07/20 06:16:23;;;;;;;4.70;2.50;;;18.40;99.90;;;;;;5062530;28;20080;-70
2021/07/20 06:18:50;;;;;;;7.88;2.60;;;18.50;99.90;;;;;;5082283;28;20500;-70
2021/07/20 06:21:20;;;;;;;5.35;2.20;;;18.60;99.90;;;;;;5077656;28;20039;-70
2021/07/20 06:23:48;;;;;;;4.97;2.38;;;18.70;99.90;;;;;;5065841;28;20036;-69
2021/07/20 06:26:21;;;;;;;8.60;3.03;;;18.90;99.90;;;;;;5063474;28;20071;-70
2021/07/20 06:28:48;;;;;;;5.55;2.50;;;19.10;99.90;;;;;;5066260;28;20043;-69
2021/07/20 06:31:18;;;;;;;5.13;2.30;;;19.30;99.90;;;;;;5078798;28;20033;-69
2021/07/20 06:33:46;;;;;;;5.40;2.25;;;19.50;98.90;;;;;;5078071;28;20064;-69
2021/07/20 06:36:16;;;;;;;4.00;2.22;;;19.50;98.60;;;;;;5074142;28;20020;-69
2021/07/20 06:38:43;;;;;;;5.65;2.58;;;19.50;98.60;;;;;;5063807;28;20032;-70
2021/07/20 06:41:09;;;;;;;6.88;2.60;;;19.70;98.10;;;;;;5073766;28;20024;-69
2021/07/20 06:43:38;;;;;;;4.97;2.30;;;19.80;97.40;;;;;;5078569;28;20183;-70
2021/07/20 06:46:06;;;;;;;8.93;2.33;;;19.80;97.90;;;;;;5073327;28;20032;-69
2021/07/20 06:48:33;;;;;;;3.97;2.30;;;20.00;97.90;;;;;;5054908;28;20112;-70
2021/07/20 06:50:59;;;;;;;5.10;2.40;;;20.30;96.80;;;;;;5060584;28;20033;-69
2021/07/20 06:53:25;;;;;;;4.18;2.35;;;20.50;95.80;;;;;;5038074;28;20098;-69
2021/07/20 06:55:59;;;;;;;3.78;2.08;;;20.60;95.50;;;;;;5078659;28;20028;-69
2021/07/20 06:58:27;;;;;;;6.47;2.35;;;20.80;95.40;;;;;;5070977;28;20039;-69
2021/07/20 07:00:56;;;;;;;7.45;3.08;;;21.10;94.20;;;;;;5056349;28;20035;-69
2021/07/20 07:03:27;;;;;;;6.15;2.22;;;21.20;94.50;;;;;;5059515;28;20043;-70
2021/07/20 07:05:56;;;;;;;5.05;2.40;;;21.70;94.00;;;;;;5071925;28;20063;-70
2021/07/20 07:08:23;;;;;;;5.57;2.33;;;22.20;93.70;;;;;;5072193;28;20037;-70
2021/07/20 07:10:50;;;;;;;7.05;1.90;;;22.90;91.30;;;;;;5072342;28;20029;-70
2021/07/20 07:13:17;;;;;;;7.63;2.70;;;23.50;89.80;;;;;;5076917;28;20036;-70
2021/07/20 07:15:44;;;;;;;4.80;2.40;;;24.20;88.90;;;;;;5066046;28;20087;-70
2021/07/20 07:18:11;;;;;;;3.95;2.40;;;24.90;84.50;;;;;;5075853;28;20033;-70
2021/07/20 07:20:39;;;;;;;5.20;2.45;;;25.40;82.80;;;;;;5076931;28;20090;-70
2021/07/20 07:23:05;;;;;;;7.88;2.08;;;26.00;79.70;;;;;;5064700;28;20500;-70
2021/07/20 07:25:31;;;;;;;3.67;2.30;;;26.30;74.60;;;;;;5074186;28;20033;-68
2021/07/20 07:27:59;;;;;;;3.72;1.67;;;26.70;72.80;;;;;;5072601;28;20040;-69
2021/07/20 07:30:25;;;;;;;4.43;2.63;;;27.20;69.70;;;;;;5060033;28;20117;-69
2021/07/20 07:32:52;;;;;;;5.78;2.60;;;27.60;71.50;;;;;;5073894;28;20081;-70
2021/07/20 07:35:18;;;;;;;5.50;2.70;;;27.70;66.50;;;;;;5074429;28;20036;-71
2021/07/20 07:37:45;;;;;;;4.80;2.42;;;28.20;65.20;;;;;;5074747;28;20094;-70
2021/07/20 07:40:13;;;;;;;5.28;2.75;;;28.40;64.20;;;;;;5076148;28;20086;-69
2021/07/20 07:42:39;;;;;;;4.75;2.65;;;28.50;65.90;;;;;;5057469;28;20120;-70
2021/07/20 07:45:08;;;;;;;7.82;3.08;;;29.00;63.80;;;;;;5060495;28;20060;-69
2021/07/20 07:47:36;;;;;;;8.10;3.00;;;29.50;60.20;;;;;;5062097;28;20048;-69
2021/07/20 07:50:06;;;;;;;9.23;3.08;;;29.50;59.60;;;;;;5075889;28;20035;-70
2021/07/20 07:52:34;;;;;;;6.38;3.88;;;29.70;59.40;;;;;;5074732;28;20028;-69
2021/07/20 07:55:00;;;;;;;7.38;3.40;;;29.90;58.40;;;;;;5076652;28;20039;-69
2021/07/20 07:57:27;;;;;;;6.43;3.10;;;30.00;57.50;;;;;;5061723;28;20036;-70
2021/07/20 07:59:56;;;;;;;4.88;3.28;;;29.90;58.60;;;;;;5078827;28;20025;-70
2021/07/20 08:02:28;;;;;;;5.47;4.00;;;30.00;58.80;;;;;;5071532;28;20036;-70
2021/07/20 08:04:55;;;;;;;5.00;3.38;;;30.00;59.10;;;;;;5077289;28;20672;-70
2021/07/20 08:07:22;;;;;;;6.25;3.88;;;30.30;57.10;;;;;;5077162;28;20040;-70
2021/07/20 08:09:50;;;;;;;5.57;3.40;;;30.60;56.50;;;;;;5077399;28;20074;-70
2021/07/20 08:12:16;;;;;;;5.82;3.03;;;30.50;55.60;;;;;;5060208;28;20036;-70
2021/07/20 08:14:43;;;;;;;4.30;3.08;;;30.50;54.70;;;;;;5079047;28;20040;-69
2021/07/20 08:17:10;;;;;;;4.82;3.38;;;30.40;54.70;;;;;;5078317;28;20032;-70
2021/07/20 08:19:38;;;;;;;7.53;3.47;;;30.00;55.60;;;;;;5078800;28;20040;-71
2021/07/20 08:22:09;;;;;;;5.32;3.85;;;30.00;54.70;;;;;;5079442;28;20674;-71
2021/07/20 08:24:38;;;;;;;5.80;3.85;;;30.00;55.90;;;;;;5073858;28;20032;-70
2021/07/20 08:27:13;;;;;;;8.70;4.03;;;29.90;56.20;;;;;;5078218;28;20477;-69
2021/07/20 08:29:40;;;;;;;6.13;3.95;;;30.00;56.50;;;;;;5077765;28;20108;-69
2021/07/20 08:32:15;;;;;;;7.10;4.38;;;29.80;56.90;;;;;;5072497;28;20490;-70
2021/07/20 08:34:45;;;;;;;4.90;3.58;;;30.20;54.20;;;;;;5074075;28;20106;-71
2021/07/20 08:37:12;;;;;;;6.25;3.78;;;30.00;53.90;;;;;;5052980;28;20032;-71
2021/07/20 08:39:39;;;;;;;5.07;2.85;;;29.70;55.10;;;;;;5077173;28;20516;-72
2021/07/20 08:42:26;;;;;;;6.93;3.33;;;29.50;56.00;;;;;;5077737;28;20508;-70
2021/07/20 08:45:14;;;;;;;4.05;2.72;;;29.20;56.40;;;;;;5075358;28;20052;-70
2021/07/20 08:48:15;;;;;;;4.88;3.03;;;29.00;57.10;;;;;;5078851;28;20029;-70
2021/07/20 08:51:04;;;;;;;6.75;3.05;;;28.90;56.80;;;;;;5077670;28;20035;-69
2021/07/20 08:53:57;;;;;;;6.43;3.03;;;28.80;55.90;;;;;;5065203;28;20044;-69
2021/07/20 08:56:27;;;;;;;4.47;2.65;;;28.60;57.80;;;;;;5063160;28;20028;-69
2021/07/20 08:59:02;;;;;;;5.35;2.63;;;28.10;57.20;;;;;;5074437;28;20037;-69
2021/07/20 09:01:43;;;;;;;4.97;2.65;;;27.90;58.30;;;;;;5075343;28;20025;-69
2021/07/20 09:04:30;;;;;;;4.38;2.40;;;27.50;60.30;;;;;;5075603;28;20055;-69
2021/07/20 09:07:22;;;;;;;5.05;2.38;;;27.10;59.60;;;;;;5057274;28;20044;-70
2021/07/20 09:09:49;;;;;;;5.72;2.53;;;26.90;58.90;;;;;;5073095;28;20051;-70
2021/07/20 09:12:20;;;;;;;3.95;2.28;;;26.50;62.20;;;;;;5059436;28;20037;-70
2021/07/20 09:15:08;;;;;;;7.80;3.10;;;26.30;61.30;;;;;;5054242;28;20052;-70
2021/07/20 09:17:57;;;;;;;5.65;2.72;;;26.30;60.40;;;;;;5077243;28;20036;-69
2021/07/20 09:20:30;;;;;;;6.50;2.40;;;26.20;62.00;;;;;;5058437;28;20107;-69
2021/07/20 09:23:04;;;;;;;4.93;2.65;;;26.00;61.10;;;;;;5058424;28;20279;-69
2021/07/20 09:25:36;;;;;;;7.55;2.20;;;25.80;62.90;;;;;;5075439;28;20042;-69
2021/07/20 09:28:08;;;;;;;5.30;2.55;;;25.60;63.00;;;;;;5058554;28;20099;-70
2021/07/20 09:30:39;;;;;;;5.65;2.75;;;25.50;64.00;;;;;;5082111;28;20557;-69
2021/07/20 09:33:39;;;;;;;4.70;2.75;;;25.40;63.90;;;;;;5059241;28;20062;-69
2021/07/20 09:36:43;;;;;;;8.93;3.25;;;25.40;62.60;;;;;;5074240;28;20032;-69
2021/07/20 09:39:32;;;;;;;4.63;2.47;;;25.30;64.10;;;;;;5054682;28;20044;-69
2021/07/20 09:42:27;;;;;;;6.32;3.08;;;25.30;65.30;;;;;;5059390;28;20115;-69
2021/07/20 09:45:01;;;;;;;4.70;2.55;;;25.20;65.60;;;;;;5043218;28;20108;-68
2021/07/20 09:48:03;;;;;;;11.60;3.60;;;25.20;66.90;;;;;;5071076;28;20048;-69
2021/07/20 09:50:35;;;;;;;9.52;2.88;;;25.30;66.00;;;;;;5074206;28;20408;-69
2021/07/20 09:53:20;;;;;;;4.97;2.25;;;25.30;64.80;;;;;;5075399;28;20036;-68
2021/07/20 09:55:54;;;;;;;6.75;2.70;;;25.20;64.70;;;;;;5056855;28;20040;-69
2021/07/20 09:58:54;;;;;;;6.10;2.63;;;25.00;65.10;;;;;;5055681;28;20493;-69
2021/07/20 10:01:48;;;;;;;5.70;2.95;;;25.10;66.30;;;;;;5055399;28;20036;-70
2021/07/20 10:04:22;;;;;;;6.80;2.95;;;25.20;64.60;;;;;;5059533;28;20028;-70
2021/07/20 10:07:21;;;;;;;4.90;2.38;;;25.30;63.00;;;;;;5073080;28;20217;-70
2021/07/20 10:09:53;;;;;;;6.15;3.08;;;25.30;65.10;;;;;;5072841;28;20048;-70
2021/07/20 10:12:42;;;;;;;5.72;2.42;;;25.20;64.80;;;;;;5058742;28;20047;-70
2021/07/20 10:15:10;;;;;;;6.20;2.78;;;25.00;66.30;;;;;;5059099;28;20085;-70
2021/07/20 10:17:49;;;;;;;6.38;2.40;;;25.20;66.00;;;;;;5079753;28;20555;-70
2021/07/20 10:20:30;;;;;;;6.80;2.80;;;25.10;65.60;;;;;;5075235;28;20043;-70
2021/07/20 10:23:05;;;;;;;4.88;2.20;;;25.20;66.80;;;;;;5072385;28;20040;-70
2021/07/20 10:25:57;;;;;;;6.30;2.97;;;25.40;67.70;;;;;;5077357;28;20087;-71
2021/07/20 10:28:28;;;;;;;6.32;2.28;;;25.50;66.90;;;;;;5060389;28;20041;-68
2021/07/20 10:31:11;;;;;;;5.03;2.70;;;25.40;65.80;;;;;;5077034;28;20040;-71
2021/07/20 10:33:47;;;;;;;7.65;2.70;;;25.40;66.80;;;;;;5076351;28;20067;-69
2021/07/20 10:36:28;;;;;;;10.50;3.00;;;25.50;65.70;;;;;;5075720;28;20062;-69
2021/07/20 10:38:57;;;;;;;5.85;2.53;;;25.60;65.80;;;;;;5057414;28;20033;-71
2021/07/20 10:41:28;;;;;;;5.82;2.72;;;25.70;65.40;;;;;;5064223;28;20033;-70
2021/07/20 10:44:19;;;;;;;5.45;2.53;;;25.50;65.30;;;;;;5096930;27;20332;-70
2021/07/20 10:46:48;;;;;;;6.68;3.05;;;25.60;64.10;;;;;;5097106;28;20028;-69
2021/07/20 10:49:30;;;;;;;6.57;3.25;;;25.60;63.70;;;;;;5098622;28;20032;-69
2021/07/20 10:52:05;;;;;;;6.03;3.10;;;25.60;63.50;;;;;;5092363;28;20079;-69
2021/07/20 10:54:45;;;;;;;6.65;2.58;;;25.60;64.30;;;;;;5061342;28;20035;-69
2021/07/20 10:57:17;;;;;;;6.80;2.78;;;25.60;64.70;;;;;;5048532;28;20120;-70
2021/07/20 10:59:56;;;;;;;6.47;2.50;;;25.70;65.60;;;;;;5043719;28;20037;-69
2021/07/20 11:02:59;;;;;;;6.75;2.67;;;25.80;66.80;;;;;;5049484;28;20524;-69
2021/07/20 11:05:27;;;;;;;4.93;2.40;;;25.90;67.20;;;;;;5041695;28;20041;-70
2021/07/20 11:07:57;;;;;;;5.70;2.78;;;25.90;65.60;;;;;;5048316;28;20680;-70
2021/07/20 11:10:51;;;;;;;4.68;2.22;;;25.90;65.30;;;;;;5046526;28;20046;-71
2021/07/20 11:13:26;;;;;;;4.40;2.40;;;25.90;64.70;;;;;;5042748;28;20057;-67
2021/07/20 11:15:54;;;;;;;6.15;2.95;;;25.60;63.60;;;;;;5043340;28;20429;-67
2021/07/20 11:18:24;;;;;;;4.95;2.72;;;25.60;64.80;;;;;;5046575;28;20037;-67
2021/07/20 11:20:52;;;;;;;7.88;3.35;;;25.50;64.20;;;;;;5048471;28;20091;-68
2021/07/20 11:23:19;;;;;;;6.03;2.95;;;25.40;68.10;;;;;;5046548;28;20075;-67
2021/07/20 11:25:47;;;;;;;5.82;2.95;;;25.40;65.80;;;;;;5042743;28;20033;-68
2021/07/20 11:28:14;;;;;;;5.60;3.05;;;25.60;65.70;;;;;;5047409;28;20033;-67
2021/07/20 11:30:43;;;;;;;6.43;3.00;;;25.60;63.50;;;;;;5046986;28;20040;-69
2021/07/20 11:33:16;;;;;;;6.97;3.50;;;25.60;65.70;;;;;;5047097;28;20025;-67
2021/07/20 11:35:46;;;;;;;6.30;3.30;;;25.70;63.80;;;;;;5050476;28;20045;-68
2021/07/20 11:38:14;;;;;;;6.50;2.92;;;25.60;63.60;;;;;;5046418;28;20115;-67
2021/07/20 11:41:06;;;;;;;5.72;2.55;;;25.60;66.90;;;;;;5048300;28;20021;-68
2021/07/20 11:43:50;;;;;;;5.00;2.97;;;25.60;67.90;;;;;;5041869;28;20079;-67
2021/07/20 11:46:21;;;;;;;5.07;2.75;;;25.40;65.60;;;;;;5044917;28;20056;-67
2021/07/20 11:48:53;;;;;;;5.97;2.92;;;25.50;67.20;;;;;;5044978;28;20044;-67
2021/07/20 11:51:29;;;;;;;4.57;2.42;;;25.50;65.00;;;;;;5047157;28;20037;-67
2021/07/20 11:54:20;;;;;;;6.28;3.38;;;25.50;67.00;;;;;;5037885;28;20038;-67
2021/07/20 11:57:04;;;;;;;;;;;25.60;64.70;;;;;;5029278;28;20041;-66
2021/07/20 12:00:08;;;;;;;7.28;3.15;;;25.30;65.50;;;;;;5030023;28;19924;-67
2021/07/20 12:02:53;;;;;;;7.20;3.50;;;25.20;66.20;;;;;;5012183;28;20041;-67
2021/07/20 12:05:30;;;;;;;5.47;3.10;;;25.10;64.50;;;;;;5036266;28;20033;-67
2021/07/20 12:08:10;;;;;;;6.70;3.40;;;25.00;64.70;;;;;;5037973;28;20086;-67
2021/07/20 12:10:39;;;;;;;6.13;2.60;;;24.80;65.70;;;;;;5035966;28;20033;-67
2021/07/20 12:13:09;;;;;;;7.55;3.58;;;24.80;68.50;;;;;;5038749;28;20044;-68
2021/07/20 12:15:36;;;;;;;6.53;3.58;;;24.80;68.40;;;;;;5036675;28;20061;-68
2021/07/20 12:18:04;;;;;;;9.93;3.75;;;24.80;68.70;;;;;;5034943;28;20118;-67
2021/07/20 12:20:30;;;;;;;8.68;3.97;;;24.70;68.70;;;;;;5038243;28;20465;-67
2021/07/20 12:22:58;;;;;;;8.77;3.75;;;24.70;68.50;;;;;;5036710;28;20033;-67
2021/07/20 12:25:25;;;;;;;6.47;3.22;;;24.70;66.30;;;;;;5035511;28;20037;-67
2021/07/20 12:27:53;;;;;;;8.85;3.25;;;24.60;69.00;;;;;;5034396;28;20049;-67
2021/07/20 12:30:20;;;;;;;7.97;3.25;;;24.60;66.90;;;;;;5036888;28;20048;-67
2021/07/20 12:32:46;;;;;;;6.03;2.75;;;24.70;67.30;;;;;;5035626;28;20040;-67
2021/07/20 12:35:19;;;;;;;6.07;3.30;;;24.70;66.20;;;;;;5038995;28;20047;-67
2021/07/20 12:38:02;;;;;;;7.38;3.90;;;24.80;66.50;;;;;;5033883;28;20037;-67
2021/07/20 12:40:28;;;;;;;8.23;4.13;;;24.70;65.00;;;;;;5032611;28;20043;-68
2021/07/20 12:42:54;;;;;;;7.95;3.92;;;24.50;66.60;;;;;;5034439;28;20045;-67
2021/07/20 12:45:23;;;;;;;7.38;3.63;;;24.50;68.80;;;;;;5034473;28;20671;-67
2021/07/20 12:47:49;;;;;;;6.68;2.92;;;24.40;67.20;;;;;;5033630;28;20041;-67
2021/07/20 12:50:18;;;;;;;6.25;3.10;;;24.50;66.40;;;;;;5036306;28;20033;-67
2021/07/20 12:52:48;;;;;;;7.05;3.55;;;24.50;66.00;;;;;;5033845;28;20083;-68
2021/07/20 12:55:16;;;;;;;9.77;3.70;;;24.40;67.90;;;;;;5036335;28;20041;-68
2021/07/20 12:57:54;;;;;;;7.85;3.58;;;24.40;69.50;;;;;;5034339;28;20045;-67
2021/07/20 13:00:24;;;;;;;7.35;4.18;;;24.50;68.50;;;;;;5035034;28;20029;-67
2021/07/20 13:02:52;;;;;;;9.02;3.72;;;24.50;67.50;;;;;;5036050;28;20042;-67
2021/07/20 13:05:20;;;;;;;6.25;3.65;;;24.50;66.30;;;;;;5035331;28;20037;-66